sensor_id;sensor_type;location;lat;lon;timestamp;pressure;altitude;pressure_sealevel;temperature;humidity
43364;BME280;40636;52.424;-1.948;2023-02-19T00:01:26;100495.34;;;8.15;100.00
43364;BME280;40636;52.424;-1.948;2023-02-19T00:04:18;100489.88;;;8.15;100.00
43364;BME280;40636;52.424;-1.948;2023-02-19T00:06:46;100494.50;;;8.14;100.00
43364;BME280;40636;52.424;-1.948;2023-02-19T00:09:14;100501.66;;;8.16;100.00
43364;BME280;40636;52.424;-1.948;2023-02-19T00:11:42;100507.13;;;8.16;100.00
43364;BME280;40636;52.424;-1.948;2023-02-19T00:14:13;100510.47;;;8.18;100.00
43364;BME280;40636;52.424;-1.948;2023-02-19T00:16:41;100502.88;;;8.20;100.00
43364;BME280;40636;52.424;-1.948;2023-02-19T00:19:11;100510.84;;;8.21;100.00
43364;BME280;40636;52.424;-1.948;2023-02-19T00:21:38;100518.41;;;8.26;100.00
43364;BME280;40636;52.424;-1.948;2023-02-19T00:24:06;100525.81;;;8.19;100.00
43364;BME280;40636;52.424;-1.948;2023-02-19T00:26:33;100534.22;;;8.17;100.00
43364;BME280;40636;52.424;-1.948;2023-02-19T00:29:01;100542.84;;;8.21;100.00
43364;BME280;40636;52.424;-1.948;2023-02-19T00:31:34;100547.03;;;8.23;100.00
43364;BME280;40636;52.424;-1.948;2023-02-19T00:34:04;100538.16;;;8.28;100.00
43364;BME280;40636;52.424;-1.948;2023-02-19T00:36:32;100540.66;;;8.29;100.00
43364;BME280;40636;52.424;-1.948;2023-02-19T00:39:02;100552.03;;;8.26;100.00
43364;BME280;40636;52.424;-1.948;2023-02-19T00:41:29;100549.94;;;8.28;100.00
43364;BME280;40636;52.424;-1.948;2023-02-19T00:44:03;100558.75;;;8.30;100.00
43364;BME280;40636;52.424;-1.948;2023-02-19T00:46:39;100556.19;;;8.35;100.00
43364;BME280;40636;52.424;-1.948;2023-02-19T00:49:08;100558.91;;;8.35;100.00
43364;BME280;40636;52.424;-1.948;2023-02-19T00:51:37;100565.25;;;8.36;100.00
43364;BME280;40636;52.424;-1.948;2023-02-19T00:54:04;100564.22;;;8.37;100.00
43364;BME280;40636;52.424;-1.948;2023-02-19T00:56:31;100565.06;;;8.37;100.00
43364;BME280;40636;52.424;-1.948;2023-02-19T00:58:58;100569.84;;;8.42;100.00
43364;BME280;40636;52.424;-1.948;2023-02-19T01:01:25;100570.69;;;8.43;100.00
43364;BME280;40636;52.424;-1.948;2023-02-19T01:03:52;100571.09;;;8.46;100.00
43364;BME280;40636;52.424;-1.948;2023-02-19T01:06:19;100565.38;;;8.48;100.00
43364;BME280;40636;52.424;-1.948;2023-02-19T01:08:46;100566.69;;;8.45;100.00
43364;BME280;40636;52.424;-1.948;2023-02-19T01:11:13;100568.34;;;8.46;100.00
43364;BME280;40636;52.424;-1.948;2023-02-19T01:13:41;100570.69;;;8.43;100.00
43364;BME280;40636;52.424;-1.948;2023-02-19T01:16:13;100576.09;;;8.49;100.00
43364;BME280;40636;52.424;-1.948;2023-02-19T01:18:41;100573.38;;;8.49;100.00
43364;BME280;40636;52.424;-1.948;2023-02-19T01:21:13;100565.81;;;8.45;100.00
43364;BME280;40636;52.424;-1.948;2023-02-19T01:23:40;100566.22;;;8.48;100.00
43364;BME280;40636;52.424;-1.948;2023-02-19T01:26:12;100567.28;;;8.47;100.00
43364;BME280;40636;52.424;-1.948;2023-02-19T01:28:39;100563.88;;;8.52;100.00
43364;BME280;40636;52.424;-1.948;2023-02-19T01:31:07;100566.84;;;8.50;100.00
43364;BME280;40636;52.424;-1.948;2023-02-19T01:33:36;100561.59;;;8.49;100.00
43364;BME280;40636;52.424;-1.948;2023-02-19T01:36:04;100563.75;;;8.40;100.00
43364;BME280;40636;52.424;-1.948;2023-02-19T01:38:31;100548.22;;;8.34;100.00
43364;BME280;40636;52.424;-1.948;2023-02-19T01:41:01;100562.31;;;8.31;100.00
43364;BME280;40636;52.424;-1.948;2023-02-19T01:43:31;100571.81;;;8.28;100.00
43364;BME280;40636;52.424;-1.948;2023-02-19T01:45:58;100571.66;;;8.17;100.00
43364;BME280;40636;52.424;-1.948;2023-02-19T01:48:32;100585.34;;;8.17;100.00
43364;BME280;40636;52.424;-1.948;2023-02-19T01:51:11;100589.09;;;8.22;100.00
43364;BME280;40636;52.424;-1.948;2023-02-19T01:53:43;100588.28;;;8.15;100.00
43364;BME280;40636;52.424;-1.948;2023-02-19T01:56:14;100597.09;;;8.17;100.00
43364;BME280;40636;52.424;-1.948;2023-02-19T01:58:41;100603.03;;;8.14;100.00
43364;BME280;40636;52.424;-1.948;2023-02-19T02:01:08;100598.41;;;8.14;100.00
43364;BME280;40636;52.424;-1.948;2023-02-19T02:03:37;100597.97;;;8.18;100.00
43364;BME280;40636;52.424;-1.948;2023-02-19T02:06:20;100599.19;;;8.22;100.00
43364;BME280;40636;52.424;-1.948;2023-02-19T02:08:54;100599.81;;;8.24;100.00
43364;BME280;40636;52.424;-1.948;2023-02-19T02:11:50;100605.22;;;8.30;100.00
43364;BME280;40636;52.424;-1.948;2023-02-19T02:14:20;100609.22;;;8.41;100.00
43364;BME280;40636;52.424;-1.948;2023-02-19T02:17:10;100606.28;;;8.36;100.00
43364;BME280;40636;52.424;-1.948;2023-02-19T02:20:02;100628.16;;;8.36;100.00
43364;BME280;40636;52.424;-1.948;2023-02-19T02:31:18;100613.84;;;8.34;100.00
43364;BME280;40636;52.424;-1.948;2023-02-19T02:36:33;100629.41;;;8.33;100.00
43364;BME280;40636;52.424;-1.948;2023-02-19T02:39:02;100623.09;;;8.33;100.00
43364;BME280;40636;52.424;-1.948;2023-02-19T02:41:32;100625.63;;;8.41;100.00
43364;BME280;40636;52.424;-1.948;2023-02-19T02:43:59;100623.91;;;8.40;100.00
43364;BME280;40636;52.424;-1.948;2023-02-19T02:46:34;100627.72;;;8.39;100.00
43364;BME280;40636;52.424;-1.948;2023-02-19T02:49:04;100640.97;;;8.42;100.00
43364;BME280;40636;52.424;-1.948;2023-02-19T02:51:37;100646.44;;;8.42;100.00
43364;BME280;40636;52.424;-1.948;2023-02-19T02:57:03;100645.59;;;8.35;100.00
43364;BME280;40636;52.424;-1.948;2023-02-19T02:59:33;100637.38;;;8.35;100.00
43364;BME280;40636;52.424;-1.948;2023-02-19T03:02:06;100641.81;;;8.36;100.00
43364;BME280;40636;52.424;-1.948;2023-02-19T03:04:39;100640.78;;;8.37;100.00
43364;BME280;40636;52.424;-1.948;2023-02-19T03:07:38;100647.94;;;8.38;100.00
43364;BME280;40636;52.424;-1.948;2023-02-19T03:10:10;100655.50;;;8.36;100.00
43364;BME280;40636;52.424;-1.948;2023-02-19T03:12:39;100655.50;;;8.36;100.00
43364;BME280;40636;52.424;-1.948;2023-02-19T03:15:30;100664.13;;;8.33;100.00
43364;BME280;40636;52.424;-1.948;2023-02-19T03:18:17;100666.84;;;8.33;100.00
43364;BME280;40636;52.424;-1.948;2023-02-19T03:21:04;100679.47;;;8.34;100.00
43364;BME280;40636;52.424;-1.948;2023-02-19T03:23:33;100676.13;;;8.32;100.00
43364;BME280;40636;52.424;-1.948;2023-02-19T03:26:20;100661.81;;;8.30;100.00
43364;BME280;40636;52.424;-1.948;2023-02-19T03:28:49;100665.19;;;8.32;100.00
43364;BME280;40636;52.424;-1.948;2023-02-19T03:31:36;100665.63;;;8.29;100.00
43364;BME280;40636;52.424;-1.948;2023-02-19T03:34:10;100667.09;;;8.31;100.00
43364;BME280;40636;52.424;-1.948;2023-02-19T03:36:42;100680.97;;;8.30;100.00
43364;BME280;40636;52.424;-1.948;2023-02-19T03:39:12;100681.59;;;8.38;100.00
43364;BME280;40636;52.424;-1.948;2023-02-19T03:46:52;100690.19;;;8.35;100.00
43364;BME280;40636;52.424;-1.948;2023-02-19T03:49:44;100703.03;;;8.35;100.00
43364;BME280;40636;52.424;-1.948;2023-02-19T03:52:24;100699.44;;;8.34;100.00
43364;BME280;40636;52.424;-1.948;2023-02-19T03:57:50;100720.47;;;8.47;100.00
43364;BME280;40636;52.424;-1.948;2023-02-19T04:00:31;100731.22;;;8.42;100.00
43364;BME280;40636;52.424;-1.948;2023-02-19T04:03:16;100736.69;;;8.42;100.00
43364;BME280;40636;52.424;-1.948;2023-02-19T04:05:49;100745.50;;;8.44;100.00
43364;BME280;40636;52.424;-1.948;2023-02-19T04:08:19;100746.75;;;8.48;100.00
43364;BME280;40636;52.424;-1.948;2023-02-19T04:10:48;100739.84;;;8.46;100.00
43364;BME280;40636;52.424;-1.948;2023-02-19T04:13:23;100737.47;;;8.49;100.00
43364;BME280;40636;52.424;-1.948;2023-02-19T04:15:54;100728.25;;;8.50;100.00
43364;BME280;40636;52.424;-1.948;2023-02-19T04:18:26;100730.53;;;8.53;100.00
43364;BME280;40636;52.424;-1.948;2023-02-19T04:20:54;100728.25;;;8.50;100.00
43364;BME280;40636;52.424;-1.948;2023-02-19T04:23:23;100731.19;;;8.49;100.00
43364;BME280;40636;52.424;-1.948;2023-02-19T04:25:56;100745.44;;;8.57;100.00
43364;BME280;40636;52.424;-1.948;2023-02-19T04:28:25;100757.88;;;8.53;100.00
43364;BME280;40636;52.424;-1.948;2023-02-19T04:30:54;100752.22;;;8.55;100.00
43364;BME280;40636;52.424;-1.948;2023-02-19T04:33:21;100755.19;;;8.47;100.00
43364;BME280;40636;52.424;-1.948;2023-02-19T04:35:48;100756.25;;;8.46;100.00
43364;BME280;40636;52.424;-1.948;2023-02-19T04:38:14;100768.63;;;8.48;100.00
43364;BME280;40636;52.424;-1.948;2023-02-19T04:40:41;100769.47;;;8.49;100.00
43364;BME280;40636;52.424;-1.948;2023-02-19T04:43:08;100783.81;;;8.44;100.00
43364;BME280;40636;52.424;-1.948;2023-02-19T04:45:38;100801.28;;;8.50;100.00
43364;BME280;40636;52.424;-1.948;2023-02-19T04:48:04;100816.84;;;8.36;100.00
43364;BME280;40636;52.424;-1.948;2023-02-19T04:50:31;100813.28;;;8.29;100.00
43364;BME280;40636;52.424;-1.948;2023-02-19T04:52:58;100828.03;;;8.14;100.00
43364;BME280;40636;52.424;-1.948;2023-02-19T04:55:24;100819.41;;;8.18;100.00
43364;BME280;40636;52.424;-1.948;2023-02-19T04:57:51;100827.84;;;8.09;100.00
43364;BME280;40636;52.424;-1.948;2023-02-19T05:00:18;100824.47;;;8.01;100.00
43364;BME280;40636;52.424;-1.948;2023-02-19T05:02:44;100830.38;;;7.98;100.00
43364;BME280;40636;52.424;-1.948;2023-02-19T05:05:11;100829.75;;;7.96;100.00
43364;BME280;40636;52.424;-1.948;2023-02-19T05:07:38;100828.69;;;7.90;100.00
43364;BME280;40636;52.424;-1.948;2023-02-19T05:10:05;100831.22;;;7.78;100.00
43364;BME280;40636;52.424;-1.948;2023-02-19T05:12:31;100852.03;;;7.66;100.00
43364;BME280;40636;52.424;-1.948;2023-02-19T05:14:58;100857.50;;;7.59;100.00
43364;BME280;40636;52.424;-1.948;2023-02-19T05:17:25;100851.59;;;7.62;100.00
43364;BME280;40636;52.424;-1.948;2023-02-19T05:19:51;100861.06;;;7.67;100.00
43364;BME280;40636;52.424;-1.948;2023-02-19T05:22:18;100877.44;;;7.53;100.00
43364;BME280;40636;52.424;-1.948;2023-02-19T05:24:44;100886.88;;;7.44;100.00
43364;BME280;40636;52.424;-1.948;2023-02-19T05:27:11;100894.44;;;7.42;100.00
43364;BME280;40636;52.424;-1.948;2023-02-19T05:29:38;100880.59;;;7.50;100.00
43364;BME280;40636;52.424;-1.948;2023-02-19T05:32:04;100894.03;;;7.52;100.00
43364;BME280;40636;52.424;-1.948;2023-02-19T05:34:31;100885.00;;;7.58;100.00
43364;BME280;40636;52.424;-1.948;2023-02-19T05:36:58;100894.88;;;7.52;100.00
43364;BME280;40636;52.424;-1.948;2023-02-19T05:39:24;100897.56;;;7.32;100.00
43364;BME280;40636;52.424;-1.948;2023-02-19T05:41:52;100904.09;;;7.31;100.00
43364;BME280;40636;52.424;-1.948;2023-02-19T05:44:18;100904.69;;;7.27;100.00
43364;BME280;40636;52.424;-1.948;2023-02-19T05:46:45;100922.50;;;7.16;100.00
43364;BME280;40636;52.424;-1.948;2023-02-19T05:49:11;100922.09;;;7.26;100.00
43364;BME280;40636;52.424;-1.948;2023-02-19T05:51:38;100924.16;;;7.17;100.00
43364;BME280;40636;52.424;-1.948;2023-02-19T05:54:05;100930.84;;;7.08;100.00
43364;BME280;40636;52.424;-1.948;2023-02-19T05:56:34;100913.69;;;7.14;100.00
43364;BME280;40636;52.424;-1.948;2023-02-19T05:59:16;100904.41;;;7.08;100.00
43364;BME280;40636;52.424;-1.948;2023-02-19T06:01:44;100898.75;;;7.10;100.00
43364;BME280;40636;52.424;-1.948;2023-02-19T06:04:11;100891.13;;;6.99;100.00
43364;BME280;40636;52.424;-1.948;2023-02-19T06:06:40;100891.75;;;6.94;100.00
43364;BME280;40636;52.424;-1.948;2023-02-19T06:09:07;100898.66;;;6.90;100.00
43364;BME280;40636;52.424;-1.948;2023-02-19T06:11:34;100904.97;;;6.91;100.00
43364;BME280;40636;52.424;-1.948;2023-02-19T06:14:01;100913.34;;;6.89;100.00
43364;BME280;40636;52.424;-1.948;2023-02-19T06:16:28;100917.13;;;6.88;100.00
43364;BME280;40636;52.424;-1.948;2023-02-19T06:18:54;100915.63;;;6.85;100.00
43364;BME280;40636;52.424;-1.948;2023-02-19T06:21:21;100917.75;;;6.83;100.00
43364;BME280;40636;52.424;-1.948;2023-02-19T06:23:48;100927.59;;;6.84;100.00
43364;BME280;40636;52.424;-1.948;2023-02-19T06:26:18;100939.28;;;6.72;100.00
43364;BME280;40636;52.424;-1.948;2023-02-19T06:28:47;100938.66;;;6.70;100.00
43364;BME280;40636;52.424;-1.948;2023-02-19T06:31:14;100937.34;;;6.66;100.00
43364;BME280;40636;52.424;-1.948;2023-02-19T06:33:41;100941.59;;;6.75;100.00
43364;BME280;40636;52.424;-1.948;2023-02-19T06:36:16;100931.97;;;6.72;100.00
43364;BME280;40636;52.424;-1.948;2023-02-19T06:38:43;100934.03;;;6.70;100.00
43364;BME280;40636;52.424;-1.948;2023-02-19T06:41:11;100937.84;;;6.76;100.00
43364;BME280;40636;52.424;-1.948;2023-02-19T06:43:39;100937.22;;;6.74;100.00
43364;BME280;40636;52.424;-1.948;2023-02-19T06:46:06;100943.72;;;6.73;100.00
43364;BME280;40636;52.424;-1.948;2023-02-19T06:48:34;100932.56;;;6.68;100.00
43364;BME280;40636;52.424;-1.948;2023-02-19T06:51:01;100934.88;;;6.71;100.00
43364;BME280;40636;52.424;-1.948;2023-02-19T06:53:28;100939.69;;;6.69;100.00
43364;BME280;40636;52.424;-1.948;2023-02-19T06:55:57;100923.97;;;6.71;100.00
43364;BME280;40636;52.424;-1.948;2023-02-19T06:58:24;100932.81;;;6.73;100.00
43364;BME280;40636;52.424;-1.948;2023-02-19T07:00:51;100936.16;;;6.75;100.00
43364;BME280;40636;52.424;-1.948;2023-02-19T07:03:18;100939.47;;;6.64;100.00
43364;BME280;40636;52.424;-1.948;2023-02-19T07:05:45;100955.41;;;6.67;100.00
43364;BME280;40636;52.424;-1.948;2023-02-19T07:08:12;100936.97;;;6.69;100.00
43364;BME280;40636;52.424;-1.948;2023-02-19T07:10:38;100950.84;;;6.74;100.00
43364;BME280;40636;52.424;-1.948;2023-02-19T07:13:05;100979.16;;;6.73;100.00
43364;BME280;40636;52.424;-1.948;2023-02-19T07:15:32;100949.78;;;6.68;100.00
43364;BME280;40636;52.424;-1.948;2023-02-19T07:17:58;100950.38;;;6.64;100.00
43364;BME280;40636;52.424;-1.948;2023-02-19T07:20:25;100941.91;;;6.58;100.00
43364;BME280;40636;52.424;-1.948;2023-02-19T07:22:52;100962.50;;;6.61;100.00
43364;BME280;40636;52.424;-1.948;2023-02-19T07:25:18;100971.88;;;6.52;100.00
43364;BME280;40636;52.424;-1.948;2023-02-19T07:27:45;100986.75;;;6.49;100.00
43364;BME280;40636;52.424;-1.948;2023-02-19T07:30:12;100995.19;;;6.54;100.00
43364;BME280;40636;52.424;-1.948;2023-02-19T07:32:42;101020.00;;;6.59;100.00
43364;BME280;40636;52.424;-1.948;2023-02-19T07:35:10;101023.34;;;6.61;100.00
43364;BME280;40636;52.424;-1.948;2023-02-19T07:37:37;101031.38;;;6.70;100.00
43364;BME280;40636;52.424;-1.948;2023-02-19T07:40:06;101034.50;;;6.67;100.00
43364;BME280;40636;52.424;-1.948;2023-02-19T07:42:32;101034.75;;;6.72;100.00
43364;BME280;40636;52.424;-1.948;2023-02-19T07:44:59;101008.94;;;6.68;100.00
43364;BME280;40636;52.424;-1.948;2023-02-19T07:47:28;101000.34;;;6.71;100.00
43364;BME280;40636;52.424;-1.948;2023-02-19T07:49:55;100974.31;;;6.68;100.00
43364;BME280;40636;52.424;-1.948;2023-02-19T07:52:21;100958.09;;;6.60;100.00
43364;BME280;40636;52.424;-1.948;2023-02-19T07:54:48;100949.72;;;6.61;100.00
43364;BME280;40636;52.424;-1.948;2023-02-19T07:57:15;100955.16;;;6.61;100.00
43364;BME280;40636;52.424;-1.948;2023-02-19T07:59:42;100974.41;;;6.53;100.00
43364;BME280;40636;52.424;-1.948;2023-02-19T08:02:16;100978.16;;;6.46;100.00
43364;BME280;40636;52.424;-1.948;2023-02-19T08:05:02;100997.22;;;6.46;100.00
43364;BME280;40636;52.424;-1.948;2023-02-19T08:07:33;101007.13;;;6.53;100.00
43364;BME280;40636;52.424;-1.948;2023-02-19T08:10:01;101005.69;;;6.57;100.00
43364;BME280;40636;52.424;-1.948;2023-02-19T08:12:58;100999.84;;;6.60;100.00
43364;BME280;40636;52.424;-1.948;2023-02-19T08:15:50;101018.00;;;6.75;100.00
43364;BME280;40636;52.424;-1.948;2023-02-19T08:18:20;101008.75;;;6.76;100.00
43364;BME280;40636;52.424;-1.948;2023-02-19T08:20:47;101011.69;;;6.74;100.00
43364;BME280;40636;52.424;-1.948;2023-02-19T08:23:14;101013.84;;;6.85;100.00
43364;BME280;40636;52.424;-1.948;2023-02-19T08:25:42;101016.88;;;6.97;100.00
43364;BME280;40636;52.424;-1.948;2023-02-19T08:28:10;101024.47;;;7.02;100.00
43364;BME280;40636;52.424;-1.948;2023-02-19T08:30:38;101013.56;;;7.08;100.00
43364;BME280;40636;52.424;-1.948;2023-02-19T08:33:07;101013.19;;;7.11;100.00
43364;BME280;40636;52.424;-1.948;2023-02-19T08:35:34;101015.72;;;7.13;100.00
43364;BME280;40636;52.424;-1.948;2023-02-19T08:38:02;101023.69;;;7.15;100.00
43364;BME280;40636;52.424;-1.948;2023-02-19T08:40:30;101031.22;;;7.12;100.00
43364;BME280;40636;52.424;-1.948;2023-02-19T08:43:05;101026.19;;;7.09;100.00
43364;BME280;40636;52.424;-1.948;2023-02-19T08:45:33;101033.72;;;7.07;100.00
43364;BME280;40636;52.424;-1.948;2023-02-19T08:48:00;101025.75;;;7.06;100.00
43364;BME280;40636;52.424;-1.948;2023-02-19T08:50:26;101034.53;;;7.01;100.00
43364;BME280;40636;52.424;-1.948;2023-02-19T08:52:53;101036.88;;;7.04;100.00
43364;BME280;40636;52.424;-1.948;2023-02-19T08:55:20;101046.09;;;7.03;100.00
43364;BME280;40636;52.424;-1.948;2023-02-19T08:57:47;101056.00;;;7.11;100.00
43364;BME280;40636;52.424;-1.948;2023-02-19T09:00:16;101051.63;;;7.17;100.00
43364;BME280;40636;52.424;-1.948;2023-02-19T09:02:42;101045.78;;;7.20;100.00
43364;BME280;40636;52.424;-1.948;2023-02-19T09:05:10;101060.72;;;7.24;100.00
43364;BME280;40636;52.424;-1.948;2023-02-19T09:07:38;101062.63;;;7.30;100.00
43364;BME280;40636;52.424;-1.948;2023-02-19T09:10:05;101062.84;;;7.35;100.00
43364;BME280;40636;52.424;-1.948;2023-02-19T09:12:32;101066.88;;;7.39;100.00
43364;BME280;40636;52.424;-1.948;2023-02-19T09:14:59;101071.13;;;7.48;100.00
43364;BME280;40636;52.424;-1.948;2023-02-19T09:17:26;101071.41;;;7.60;100.00
43364;BME280;40636;52.424;-1.948;2023-02-19T09:19:53;101073.97;;;7.68;100.00
43364;BME280;40636;52.424;-1.948;2023-02-19T09:22:19;101071.47;;;7.80;100.00
43364;BME280;40636;52.424;-1.948;2023-02-19T09:24:46;101062.25;;;7.94;100.00
43364;BME280;40636;52.424;-1.948;2023-02-19T09:27:18;101052.19;;;8.01;100.00
43364;BME280;40636;52.424;-1.948;2023-02-19T09:29:45;101069.47;;;8.08;100.00
43364;BME280;40636;52.424;-1.948;2023-02-19T09:32:12;101073.69;;;8.18;100.00
43364;BME280;40636;52.424;-1.948;2023-02-19T09:34:39;101083.34;;;8.13;100.00
43364;BME280;40636;52.424;-1.948;2023-02-19T09:37:06;101090.28;;;8.09;100.00
43364;BME280;40636;52.424;-1.948;2023-02-19T09:39:34;101083.75;;;8.10;100.00
43364;BME280;40636;52.424;-1.948;2023-02-19T09:42:20;101084.38;;;8.12;100.00
43364;BME280;40636;52.424;-1.948;2023-02-19T09:44:49;101087.94;;;8.06;100.00
43364;BME280;40636;52.424;-1.948;2023-02-19T09:47:19;101096.38;;;8.05;100.00
43364;BME280;40636;52.424;-1.948;2023-02-19T09:49:48;101103.13;;;8.09;100.00
43364;BME280;40636;52.424;-1.948;2023-02-19T09:52:28;101106.88;;;8.08;100.00
43364;BME280;40636;52.424;-1.948;2023-02-19T09:55:04;101114.88;;;8.16;100.00
43364;BME280;40636;52.424;-1.948;2023-02-19T09:57:39;101105.22;;;8.13;100.00
43364;BME280;40636;52.424;-1.948;2023-02-19T10:00:52;101098.53;;;8.23;100.00
43364;BME280;40636;52.424;-1.948;2023-02-19T10:03:15;101110.28;;;8.30;100.00
43364;BME280;40636;52.424;-1.948;2023-02-19T10:05:46;101109.94;;;8.39;100.00
43364;BME280;40636;52.424;-1.948;2023-02-19T10:08:18;101116.47;;;8.45;100.00
43364;BME280;40636;52.424;-1.948;2023-02-19T10:10:45;101116.47;;;8.45;100.00
43364;BME280;40636;52.424;-1.948;2023-02-19T10:13:16;101116.66;;;8.44;100.00
43364;BME280;40636;52.424;-1.948;2023-02-19T10:15:55;101113.75;;;8.45;100.00
43364;BME280;40636;52.424;-1.948;2023-02-19T10:18:24;101102.38;;;8.48;100.00
43364;BME280;40636;52.424;-1.948;2023-02-19T10:20:54;101117.97;;;8.61;100.00
43364;BME280;40636;52.424;-1.948;2023-02-19T10:23:23;101118.38;;;8.64;100.00
43364;BME280;40636;52.424;-1.948;2023-02-19T10:25:53;101117.75;;;8.69;100.00
43364;BME280;40636;52.424;-1.948;2023-02-19T10:28:25;101116.94;;;8.82;100.00
43364;BME280;40636;52.424;-1.948;2023-02-19T10:30:57;101109.13;;;8.92;100.00
43364;BME280;40636;52.424;-1.948;2023-02-19T10:33:25;101116.50;;;8.98;100.00
43364;BME280;40636;52.424;-1.948;2023-02-19T10:36:01;101111.22;;;9.10;100.00
43364;BME280;40636;52.424;-1.948;2023-02-19T10:38:38;101109.09;;;9.12;100.00
43364;BME280;40636;52.424;-1.948;2023-02-19T10:41:14;101122.81;;;9.19;100.00
43364;BME280;40636;52.424;-1.948;2023-02-19T10:44:08;101119.19;;;9.25;100.00
43364;BME280;40636;52.424;-1.948;2023-02-19T10:46:44;101114.75;;;9.30;100.00
43364;BME280;40636;52.424;-1.948;2023-02-19T10:49:25;101114.38;;;9.27;100.00
43364;BME280;40636;52.424;-1.948;2023-02-19T10:52:11;101116.84;;;9.35;100.00
43364;BME280;40636;52.424;-1.948;2023-02-19T10:54:52;101101.88;;;9.44;100.00
43364;BME280;40636;52.424;-1.948;2023-02-19T11:00:23;101094.25;;;9.59;100.00
43364;BME280;40636;52.424;-1.948;2023-02-19T11:03:20;101096.78;;;9.68;100.00
43364;BME280;40636;52.424;-1.948;2023-02-19T11:05:57;101097.81;;;9.66;100.00
43364;BME280;40636;52.424;-1.948;2023-02-19T11:08:25;101096.97;;;9.66;100.00
43364;BME280;40636;52.424;-1.948;2023-02-19T11:10:52;101092.91;;;9.75;100.00
43364;BME280;40636;52.424;-1.948;2023-02-19T11:13:36;101098.00;;;9.72;100.00
43364;BME280;40636;52.424;-1.948;2023-02-19T11:16:05;101101.41;;;9.60;100.00
43364;BME280;40636;52.424;-1.948;2023-02-19T11:18:32;101093.81;;;9.62;100.00
43364;BME280;40636;52.424;-1.948;2023-02-19T11:21:03;101093.16;;;9.74;100.00
43364;BME280;40636;52.424;-1.948;2023-02-19T11:23:34;101097.97;;;9.78;100.00
43364;BME280;40636;52.424;-1.948;2023-02-19T11:26:05;101102.03;;;9.69;100.00
43364;BME280;40636;52.424;-1.948;2023-02-19T11:28:38;101091.66;;;9.78;100.00
43364;BME280;40636;52.424;-1.948;2023-02-19T11:31:25;101090.59;;;9.79;100.00
43364;BME280;40636;52.424;-1.948;2023-02-19T11:33:58;101084.88;;;9.80;100.00
43364;BME280;40636;52.424;-1.948;2023-02-19T11:36:36;101074.56;;;9.82;100.00
43364;BME280;40636;52.424;-1.948;2023-02-19T11:50:43;101064.56;;;9.95;100.00
43364;BME280;40636;52.424;-1.948;2023-02-19T11:53:30;101065.34;;;10.08;100.00
43364;BME280;40636;52.424;-1.948;2023-02-19T11:56:20;101055.34;;;10.21;100.00
43364;BME280;40636;52.424;-1.948;2023-02-19T11:58:59;101055.34;;;10.21;100.00
43364;BME280;40636;52.424;-1.948;2023-02-19T12:04:28;101048.72;;;10.35;100.00
43364;BME280;40636;52.424;-1.948;2023-02-19T12:26:29;101059.34;;;10.31;100.00
43364;BME280;40636;52.424;-1.948;2023-02-19T12:32:15;101048.44;;;10.11;100.00
43364;BME280;40636;52.424;-1.948;2023-02-19T12:43:30;101026.81;;;9.97;100.00
43364;BME280;40636;52.424;-1.948;2023-02-19T12:46:17;101027.88;;;9.96;100.00
43364;BME280;40636;52.424;-1.948;2023-02-19T12:49:39;101017.69;;;10.03;100.00
43364;BME280;40636;52.424;-1.948;2023-02-19T12:51:47;101016.00;;;10.08;100.00
43364;BME280;40636;52.424;-1.948;2023-02-19T12:57:09;101031.22;;;10.04;100.00
43364;BME280;40636;52.424;-1.948;2023-02-19T13:02:32;101014.66;;;10.18;100.00
43364;BME280;40636;52.424;-1.948;2023-02-19T13:05:30;101003.69;;;10.18;100.00
43364;BME280;40636;52.424;-1.948;2023-02-19T13:13:44;101005.78;;;10.22;100.00
43364;BME280;40636;52.424;-1.948;2023-02-19T13:16:14;101000.69;;;10.26;100.00
43364;BME280;40636;52.424;-1.948;2023-02-19T13:18:51;100998.97;;;10.31;100.00
43364;BME280;40636;52.424;-1.948;2023-02-19T13:21:21;100992.19;;;10.34;100.00
43364;BME280;40636;52.424;-1.948;2023-02-19T13:24:10;100996.97;;;10.45;100.00
43364;BME280;40636;52.424;-1.948;2023-02-19T13:26:53;100982.34;;;10.51;100.00
43364;BME280;40636;52.424;-1.948;2023-02-19T13:37:46;100967.84;;;10.62;100.00
43364;BME280;40636;52.424;-1.948;2023-02-19T13:42:51;100968.22;;;10.73;100.00
43364;BME280;40636;52.424;-1.948;2023-02-19T13:45:33;100970.94;;;10.73;100.00
43364;BME280;40636;52.424;-1.948;2023-02-19T13:53:49;100956.69;;;10.82;100.00
43364;BME280;40636;52.424;-1.948;2023-02-19T14:04:46;100950.44;;;11.12;100.00
43364;BME280;40636;52.424;-1.948;2023-02-19T14:14:47;100908.84;;;11.27;100.00
43364;BME280;40636;52.424;-1.948;2023-02-19T14:27:56;100897.19;;;11.43;100.00
43364;BME280;40636;52.424;-1.948;2023-02-19T14:30:26;100896.28;;;11.49;100.00
43364;BME280;40636;52.424;-1.948;2023-02-19T14:32:54;100889.00;;;11.55;100.00
43364;BME280;40636;52.424;-1.948;2023-02-19T14:35:46;100894.00;;;11.58;100.00
43364;BME280;40636;52.424;-1.948;2023-02-19T14:38:23;100898.22;;;11.60;100.00
43364;BME280;40636;52.424;-1.948;2023-02-19T14:40:52;100892.25;;;11.63;100.00
43364;BME280;40636;52.424;-1.948;2023-02-19T14:43:23;100885.81;;;11.69;100.00
43364;BME280;40636;52.424;-1.948;2023-02-19T14:45:56;100871.09;;;11.76;100.00
43364;BME280;40636;52.424;-1.948;2023-02-19T14:50:57;100869.19;;;11.76;100.00
43364;BME280;40636;52.424;-1.948;2023-02-19T14:53:27;100873.16;;;11.80;100.00
43364;BME280;40636;52.424;-1.948;2023-02-19T14:55:55;100875.31;;;11.78;100.00
43364;BME280;40636;52.424;-1.948;2023-02-19T14:58:28;100865.72;;;11.81;100.00
43364;BME280;40636;52.424;-1.948;2023-02-19T15:00:56;100861.94;;;11.82;100.00
43364;BME280;40636;52.424;-1.948;2023-02-19T15:05:55;100856.81;;;11.85;100.00
43364;BME280;40636;52.424;-1.948;2023-02-19T15:08:37;100857.66;;;11.86;100.00
43364;BME280;40636;52.424;-1.948;2023-02-19T15:11:09;100857.53;;;11.92;100.00